Main page
METAR-TAF:

METAR-TAF

Airports :

Luang Prabang International Airport

Luang Prabang, Laos

latitude: 19-53N, longitude: 102-08E, elevation: 305 m

Current weather observation

The report was made 10 minutes ago, at 10:00 UTC
Wind 4 kt from the West/Southwest
Temperature 32°C
Humidity 32%
Pressure 1011 hPa
Visibility 10 km or more
Few clouds at a height of 2000 ft

METAR: VLLB 241000Z 24004KT 9999 FEW020 32/13 Q1011 NOSIG

Time: 17:10 (10:10 UTC)

Forecast

The report was made 5 hours and 10 minutes ago, at 05:00 UTC
Forecast valid from 24 at 06 UTC to 25 at 06 UTC
Wind 4 kt from the North/Northwest
Visibility 10 km or more
Few clouds at a height of 2000 ft
Few clouds at a height of 6000 ft

TAF: VLLB 240500Z 2406/2506 34004KT 9999 FEW020 FEW060

Weather observations and forecasts of more than 4000 airports (METAR and TAF reports).

The available stations are represented by yellow and red dots on the map.

Hover mouse over dot to see the name of the station.

Then click to see weather observations and forecasts.

To change the map : click on the green buttons with a black cross to zoom in, on the green button with a dash to zoom out, or on the green arrows for adjacent maps.


METAR-TAF: